createdAt,value
2019-05-03T00:02:58.765Z,8.64
2019-05-03T00:05:47.660Z,8.64
2019-05-03T00:08:33.791Z,8.63
2019-05-03T00:11:21.915Z,8.62
2019-05-03T00:14:07.821Z,8.66
2019-05-03T00:16:54.106Z,8.63
2019-05-03T00:19:42.079Z,8.78
2019-05-03T00:22:28.345Z,8.78
2019-05-03T00:25:14.700Z,8.73
2019-05-03T00:28:01.859Z,8.77
2019-05-03T00:30:48.255Z,8.81
2019-05-03T00:33:36.231Z,8.69
2019-05-03T00:36:32.827Z,8.78
2019-05-03T00:39:27.110Z,8.72
2019-05-03T00:42:13.091Z,8.78
2019-05-03T00:44:59.341Z,8.67
2019-05-03T00:47:45.364Z,8.81
2019-05-03T00:50:32.063Z,8.80
2019-05-03T00:53:18.040Z,8.78
2019-05-03T00:56:04.294Z,8.79
2019-05-03T00:58:57.046Z,8.75
2019-05-03T01:01:43.120Z,8.71
2019-05-03T01:04:29.214Z,8.78
2019-05-03T01:07:15.344Z,8.79
2019-05-03T01:10:02.696Z,8.79
2019-05-03T01:12:49.256Z,8.79
2019-05-03T01:15:42.575Z,8.76
2019-05-03T01:18:28.550Z,8.84
2019-05-03T01:21:14.573Z,8.61
2019-05-03T01:24:01.679Z,8.33
2019-05-03T01:26:47.763Z,7.94
2019-05-03T01:29:33.780Z,7.51
2019-05-03T01:32:19.906Z,7.29
2019-05-03T01:35:06.126Z,7.38
2019-05-03T01:37:52.176Z,7.43
2019-05-03T01:40:38.290Z,7.38
2019-05-03T01:43:24.559Z,7.34
2019-05-03T01:46:12.001Z,7.31
2019-05-03T01:49:12.287Z,7.41
2019-05-03T01:52:10.274Z,7.37
2019-05-03T01:54:56.130Z,7.28
2019-05-03T01:57:42.449Z,7.30
2019-05-03T02:00:31.789Z,7.34
2019-05-03T02:03:27.746Z,7.32
2019-05-03T02:06:14.363Z,7.30
2019-05-03T02:09:01.603Z,7.32
2019-05-03T02:11:48.005Z,7.41
2019-05-03T02:14:34.350Z,7.36
2019-05-03T02:17:22.555Z,7.38
2019-05-03T02:20:08.631Z,7.39
2019-05-03T02:22:54.960Z,7.34
2019-05-03T02:25:41.915Z,7.42
2019-05-03T02:28:28.426Z,7.39
2019-05-03T02:31:14.705Z,7.41
2019-05-03T02:34:03.261Z,7.43
2019-05-03T02:36:49.146Z,7.28
2019-05-03T02:39:35.250Z,7.32
2019-05-03T02:42:21.537Z,7.23
2019-05-03T02:45:10.570Z,7.31
2019-05-03T02:48:06.026Z,7.20
2019-05-03T02:50:52.545Z,7.23
2019-05-03T02:53:38.829Z,7.31
2019-05-03T02:56:26.048Z,7.33
2019-05-03T02:59:15.456Z,7.35
2019-05-03T03:02:00.178Z,7.37
2019-05-03T03:04:46.216Z,7.44
2019-05-03T03:07:32.427Z,7.32
2019-05-03T03:10:18.820Z,7.36
2019-05-03T03:13:06.068Z,7.39
2019-05-03T03:15:55.212Z,7.41
2019-05-03T03:18:40.816Z,7.45
2019-05-03T03:21:30.068Z,7.28
2019-05-03T03:24:18.984Z,7.36
2019-05-03T03:27:06.329Z,7.45
2019-05-03T03:30:07.948Z,7.41
2019-05-03T03:32:57.825Z,7.44
2019-05-03T03:35:48.433Z,7.41
2019-05-03T03:38:35.335Z,7.43
2019-05-03T03:41:21.186Z,7.32
2019-05-03T03:44:07.447Z,7.29
2019-05-03T03:46:56.201Z,7.36
2019-05-03T03:49:42.786Z,7.32
2019-05-03T03:52:31.650Z,7.39
2019-05-03T03:55:17.466Z,7.44
2019-05-03T03:58:06.489Z,7.48
2019-05-03T04:00:52.333Z,7.46
2019-05-03T04:03:38.741Z,7.51
2019-05-03T04:06:39.845Z,7.58
2019-05-03T04:09:26.919Z,7.61
2019-05-03T04:12:12.860Z,7.67
2019-05-03T04:15:21.545Z,7.68
2019-05-03T04:18:26.032Z,7.65
2019-05-03T04:21:12.516Z,7.97
2019-05-03T04:23:58.888Z,8.02
2019-05-03T04:26:45.407Z,7.92
2019-05-03T04:29:31.793Z,7.85
2019-05-03T04:32:18.225Z,7.85
2019-05-03T04:35:05.359Z,7.77
2019-05-03T04:37:51.965Z,7.57
2019-05-03T04:40:38.159Z,7.57
2019-05-03T04:43:26.395Z,7.61
2019-05-03T04:46:19.825Z,7.41
2019-05-03T04:49:05.912Z,7.66
2019-05-03T04:51:51.958Z,7.64
2019-05-03T04:55:06.343Z,7.77
2019-05-03T04:57:51.578Z,7.85
2019-05-03T05:00:37.625Z,7.63
2019-05-03T05:03:23.797Z,7.92
2019-05-03T05:06:10.652Z,7.99
2019-05-03T05:08:56.834Z,8.36
2019-05-03T05:11:45.557Z,9.18
2019-05-03T05:14:31.191Z,9.65
2019-05-03T05:17:26.362Z,10.43
2019-05-03T05:20:24.811Z,10.99
2019-05-03T05:23:11.085Z,12.06
2019-05-03T05:26:05.555Z,12.27
2019-05-03T05:28:55.699Z,12.93
2019-05-03T05:31:41.930Z,11.85
2019-05-03T05:34:28.231Z,12.39
2019-05-03T05:37:14.596Z,12.67
2019-05-03T05:40:00.985Z,13.22
2019-05-03T05:42:47.105Z,13.41
2019-05-03T05:45:34.822Z,13.82
2019-05-03T05:48:30.523Z,13.16
2019-05-03T05:51:16.782Z,13.89
2019-05-03T05:54:05.115Z,14.85
2019-05-03T05:57:05.159Z,12.91
2019-05-03T05:59:56.945Z,13.34
2019-05-03T06:02:44.724Z,13.29
2019-05-03T06:05:30.972Z,13.88
2019-05-03T06:08:35.334Z,14.61
2019-05-03T06:11:45.065Z,14.70
2019-05-03T06:14:40.348Z,15.27
2019-05-03T06:17:34.844Z,15.42
2019-05-03T06:20:31.016Z,15.94
2019-05-03T06:23:24.975Z,14.69
2019-05-03T06:26:29.603Z,14.36
2019-05-03T06:29:16.017Z,15.07
2019-05-03T06:32:21.456Z,14.05
2019-05-03T06:35:07.938Z,15.23
2019-05-03T06:37:54.659Z,14.32
2019-05-03T06:40:41.355Z,13.71
2019-05-03T06:43:27.478Z,14.06
2019-05-03T06:46:16.434Z,13.48
2019-05-03T06:49:08.602Z,12.68
2019-05-03T06:51:50.286Z,13.15
2019-05-03T06:54:37.905Z,12.16
2019-05-03T06:57:25.352Z,10.92
2019-05-03T07:00:31.875Z,11.21
2019-05-03T07:03:37.240Z,11.11
2019-05-03T07:06:45.935Z,13.64
2019-05-03T07:09:57.675Z,13.90
2019-05-03T07:13:00.824Z,15.57
2019-05-03T07:15:47.116Z,15.38
2019-05-03T07:18:34.991Z,15.72
2019-05-03T07:21:21.436Z,16.53
2019-05-03T07:24:07.684Z,16.10
2019-05-03T07:26:55.083Z,13.93
2019-05-03T07:29:41.900Z,12.83
2019-05-03T07:32:31.319Z,12.34
2019-05-03T07:35:16.886Z,12.20
2019-05-03T07:38:05.342Z,13.40
2019-05-03T07:40:51.904Z,14.65
2019-05-03T07:43:38.323Z,14.79
2019-05-03T07:46:24.705Z,14.55
2019-05-03T07:49:11.356Z,15.16
2019-05-03T07:51:57.455Z,15.88
2019-05-03T07:54:45.174Z,14.46
2019-05-03T07:57:40.857Z,13.53
2019-05-03T08:00:27.195Z,13.13
2019-05-03T08:03:15.308Z,12.24
2019-05-03T08:06:01.463Z,11.66
2019-05-03T08:08:47.503Z,11.59
2019-05-03T08:11:35.210Z,12.43
2019-05-03T08:14:21.776Z,12.72
2019-05-03T08:17:07.883Z,13.56
2019-05-03T08:19:55.150Z,14.58
2019-05-03T08:22:41.623Z,15.37
2019-05-03T08:25:27.643Z,15.93
2019-05-03T08:28:14.649Z,15.66
2019-05-03T08:31:20.557Z,15.52
2019-05-03T08:34:38.249Z,14.27
2019-05-03T08:37:28.059Z,13.28
2019-05-03T08:40:15.565Z,12.40
2019-05-03T08:43:01.924Z,11.58
2019-05-03T08:45:48.136Z,11.45
2019-05-03T08:48:35.503Z,12.09
2019-05-03T08:51:21.855Z,12.54
2019-05-03T08:54:08.035Z,12.40
2019-05-03T08:56:55.709Z,13.65
2019-05-03T08:59:44.504Z,13.99
2019-05-03T09:02:30.555Z,14.29
2019-05-03T09:05:18.613Z,14.79
2019-05-03T09:08:05.767Z,14.40
2019-05-03T09:11:06.916Z,13.58
2019-05-03T09:13:58.615Z,13.02
2019-05-03T09:16:44.895Z,12.22
2019-05-03T09:19:31.596Z,12.11
2019-05-03T09:22:17.495Z,12.44
2019-05-03T09:25:04.958Z,13.72
2019-05-03T09:27:51.557Z,13.88
2019-05-03T09:30:37.875Z,13.28
2019-05-03T09:33:24.949Z,12.88
2019-05-03T09:36:11.938Z,12.65
2019-05-03T09:38:57.938Z,12.86
2019-05-03T09:41:45.039Z,13.29
2019-05-03T09:44:31.496Z,12.86
2019-05-03T09:47:17.535Z,12.54
2019-05-03T09:50:04.778Z,12.37
2019-05-03T09:52:51.677Z,12.33
2019-05-03T09:55:40.036Z,12.10
2019-05-03T09:58:26.514Z,11.92
2019-05-03T10:01:15.852Z,12.19
2019-05-03T10:04:02.616Z,12.43
2019-05-03T10:06:48.902Z,12.73
2019-05-03T10:09:35.491Z,12.48
2019-05-03T10:12:25.488Z,12.58
2019-05-03T10:15:12.080Z,12.26
2019-05-03T10:17:59.883Z,12.35
2019-05-03T10:20:46.323Z,12.50
2019-05-03T10:23:41.416Z,12.75
2019-05-03T10:26:27.735Z,12.89
2019-05-03T10:29:15.267Z,13.08
2019-05-03T10:32:07.656Z,12.97
2019-05-03T10:34:55.681Z,13.46
2019-05-03T10:37:42.016Z,13.80
2019-05-03T10:40:28.282Z,13.32
2019-05-03T10:43:14.335Z,13.07
2019-05-03T10:46:00.622Z,12.74
2019-05-03T10:48:47.286Z,12.01
2019-05-03T10:51:38.255Z,12.53
2019-05-03T10:54:24.417Z,13.29
2019-05-03T10:57:15.972Z,13.37
2019-05-03T11:00:04.956Z,14.35
2019-05-03T11:02:58.917Z,15.41
2019-05-03T11:05:45.557Z,15.64
2019-05-03T11:08:31.555Z,14.97
2019-05-03T11:11:17.675Z,13.91
2019-05-03T11:14:05.390Z,13.03
2019-05-03T11:16:52.097Z,12.76
2019-05-03T11:19:38.238Z,12.77
2019-05-03T11:22:25.213Z,12.48
2019-05-03T11:25:11.615Z,12.68
2019-05-03T11:27:58.737Z,12.50
2019-05-03T11:30:53.154Z,12.48
2019-05-03T11:33:39.025Z,12.26
2019-05-03T11:36:36.615Z,12.27
2019-05-03T11:39:22.675Z,12.12
2019-05-03T11:42:08.855Z,11.49
2019-05-03T11:44:54.917Z,11.66
2019-05-03T11:47:41.335Z,11.90
2019-05-03T11:50:27.763Z,12.39
2019-05-03T11:53:14.562Z,12.95
2019-05-03T11:56:01.095Z,13.67
2019-05-03T11:58:47.177Z,13.90
2019-05-03T12:01:42.103Z,13.65
2019-05-03T12:04:28.276Z,13.33
2019-05-03T12:07:18.509Z,12.97
2019-05-03T12:10:16.873Z,12.73
2019-05-03T12:12:59.956Z,12.72
2019-05-03T12:15:46.216Z,12.12
2019-05-03T12:18:47.780Z,12.25
2019-05-03T12:21:21.933Z,12.25
2019-05-03T12:24:09.774Z,12.09
2019-05-03T12:26:56.115Z,12.26
2019-05-03T12:29:42.255Z,12.26
2019-05-03T12:32:28.515Z,12.46
2019-05-03T12:35:15.362Z,13.05
2019-05-03T12:38:01.996Z,13.14
2019-05-03T12:40:48.177Z,13.32
2019-05-03T12:43:34.436Z,13.21
2019-05-03T12:46:20.655Z,13.23
2019-05-03T12:49:07.058Z,12.98
2019-05-03T12:51:53.255Z,12.74
2019-05-03T12:54:39.435Z,12.73
2019-05-03T12:57:25.515Z,12.91
2019-05-03T13:00:40.098Z,12.86
2019-05-03T13:03:35.595Z,13.10
2019-05-03T13:06:22.099Z,13.42
2019-05-03T13:09:08.776Z,13.96
2019-05-03T13:11:59.154Z,14.57
2019-05-03T13:14:45.417Z,14.39
2019-05-03T13:17:35.695Z,13.59
2019-05-03T13:20:22.323Z,13.10
2019-05-03T13:23:08.555Z,12.82
2019-05-03T13:25:54.803Z,12.94
2019-05-03T13:28:41.284Z,13.00
2019-05-03T13:31:27.524Z,12.96
2019-05-03T13:34:15.568Z,12.88
2019-05-03T13:37:01.786Z,12.78
2019-05-03T13:39:47.916Z,12.88
2019-05-03T13:42:35.014Z,13.10
2019-05-03T13:45:21.700Z,13.75
2019-05-03T13:48:07.781Z,13.96
2019-05-03T13:50:55.181Z,13.75
2019-05-03T13:53:41.980Z,13.54
2019-05-03T13:56:28.200Z,13.28
2019-05-03T13:59:21.385Z,13.08
2019-05-03T14:02:14.476Z,13.05
2019-05-03T14:04:52.869Z,12.49
2019-05-03T14:07:38.970Z,12.65
2019-05-03T14:10:25.320Z,13.28
2019-05-03T14:13:11.370Z,13.40
2019-05-03T14:15:57.581Z,13.19
2019-05-03T14:18:46.458Z,13.30
2019-05-03T14:21:43.403Z,13.30
2019-05-03T14:24:29.577Z,13.22
2019-05-03T14:27:17.189Z,12.99
2019-05-03T14:30:05.435Z,13.25
2019-05-03T14:32:52.698Z,13.46
2019-05-03T14:35:39.200Z,13.31
2019-05-03T14:38:25.568Z,13.26
2019-05-03T14:41:11.826Z,13.03
2019-05-03T14:44:00.667Z,12.98
2019-05-03T14:46:46.890Z,12.78
2019-05-03T14:49:34.585Z,12.89
2019-05-03T14:52:20.686Z,12.68
2019-05-03T14:55:14.737Z,12.66
2019-05-03T14:58:14.767Z,12.80
2019-05-03T15:01:08.212Z,12.85
2019-05-03T15:03:55.052Z,12.72
2019-05-03T15:06:41.503Z,12.71
2019-05-03T15:09:27.457Z,12.50
2019-05-03T15:12:13.417Z,12.44
2019-05-03T15:14:59.661Z,12.57
2019-05-03T15:17:45.923Z,12.38
2019-05-03T15:20:31.976Z,12.68
2019-05-03T15:23:18.081Z,12.57
2019-05-03T15:26:05.132Z,12.30
2019-05-03T15:28:51.211Z,12.31
2019-05-03T15:31:37.477Z,12.30
2019-05-03T15:34:23.596Z,12.36
2019-05-03T15:37:09.852Z,12.20
2019-05-03T15:39:56.131Z,12.10
2019-05-03T15:42:48.066Z,12.12
2019-05-03T15:45:54.622Z,11.94
2019-05-03T15:48:45.786Z,11.67
2019-05-03T15:51:32.121Z,11.75
2019-05-03T15:54:18.321Z,11.68
2019-05-03T15:57:05.087Z,11.71
2019-05-03T15:59:51.406Z,11.61
2019-05-03T16:02:37.496Z,11.41
2019-05-03T16:05:25.068Z,11.61
2019-05-03T16:08:11.751Z,11.32
2019-05-03T16:10:57.925Z,11.30
2019-05-03T16:13:44.861Z,11.22
2019-05-03T16:16:31.101Z,11.39
2019-05-03T16:19:17.211Z,11.42
2019-05-03T16:22:04.872Z,11.61
2019-05-03T16:24:51.051Z,11.71
2019-05-03T16:27:56.796Z,11.80
2019-05-03T16:30:48.372Z,11.92
2019-05-03T16:33:35.020Z,11.93
2019-05-03T16:36:20.951Z,11.61
2019-05-03T16:39:07.686Z,11.54
2019-05-03T16:41:55.304Z,11.58
2019-05-03T16:44:41.266Z,11.46
2019-05-03T16:47:27.556Z,11.46
2019-05-03T16:50:14.437Z,11.58
2019-05-03T16:53:00.895Z,11.61
2019-05-03T16:55:47.026Z,11.66
2019-05-03T16:58:35.214Z,11.51
2019-05-03T17:01:21.281Z,11.56
2019-05-03T17:04:42.151Z,11.49
2019-05-03T17:07:35.375Z,11.53
2019-05-03T17:10:34.891Z,11.45
2019-05-03T17:13:21.157Z,11.33
2019-05-03T17:16:09.854Z,11.26
2019-05-03T17:18:59.292Z,11.09
2019-05-03T17:21:45.701Z,11.10
2019-05-03T17:24:31.856Z,10.87
2019-05-03T17:27:19.249Z,10.76
2019-05-03T17:30:15.869Z,10.77
2019-05-03T17:33:04.613Z,10.76
2019-05-03T17:35:51.061Z,10.75
2019-05-03T17:38:37.201Z,10.78
2019-05-03T17:41:41.816Z,10.84
2019-05-03T17:44:37.180Z,10.81
2019-05-03T17:47:23.201Z,10.73
2019-05-03T17:50:09.626Z,10.76
2019-05-03T17:53:11.526Z,10.68
2019-05-03T17:56:17.713Z,10.60
2019-05-03T17:59:10.591Z,10.48
2019-05-03T18:02:32.187Z,10.51
2019-05-03T18:05:50.949Z,10.37
2019-05-03T18:09:10.720Z,10.36
2019-05-03T18:11:58.136Z,10.29
2019-05-03T18:14:45.056Z,10.39
2019-05-03T18:17:32.816Z,10.34
2019-05-03T18:20:18.847Z,10.30
2019-05-03T18:23:05.186Z,10.30
2019-05-03T18:25:51.136Z,10.18
2019-05-03T18:28:39.641Z,10.22
2019-05-03T18:31:25.918Z,10.20
2019-05-03T18:34:18.967Z,10.20
2019-05-03T18:37:00.461Z,10.15
2019-05-03T18:39:49.951Z,10.04
2019-05-03T18:42:44.811Z,10.00
2019-05-03T18:45:59.866Z,9.98
2019-05-03T18:48:46.170Z,9.98
2019-05-03T18:51:34.257Z,9.95
2019-05-03T18:54:20.486Z,9.81
2019-05-03T18:57:06.847Z,9.68
2019-05-03T18:59:55.462Z,9.60
2019-05-03T19:02:41.859Z,9.67
2019-05-03T19:05:30.504Z,9.68
2019-05-03T19:08:42.016Z,9.58
2019-05-03T19:11:54.915Z,9.56
2019-05-03T19:14:41.545Z,9.67
2019-05-03T19:17:35.562Z,9.59
2019-05-03T19:20:22.211Z,9.54
2019-05-03T19:23:08.361Z,9.61
2019-05-03T19:25:55.255Z,9.48
2019-05-03T19:28:42.002Z,9.42
2019-05-03T19:31:28.287Z,9.47
2019-05-03T19:34:15.456Z,9.41
2019-05-03T19:37:01.681Z,9.36
2019-05-03T19:39:47.931Z,9.32
2019-05-03T19:42:35.387Z,9.22
2019-05-03T19:45:21.881Z,9.28
2019-05-03T19:48:09.691Z,9.32
2019-05-03T19:50:56.212Z,9.34
2019-05-03T19:53:49.691Z,9.17
2019-05-03T19:56:35.670Z,9.12
2019-05-03T19:59:41.602Z,9.07
2019-05-03T20:02:54.452Z,9.05
2019-05-03T20:06:00.681Z,9.05
2019-05-03T20:08:52.256Z,9.11
2019-05-03T20:11:38.436Z,9.06
2019-05-03T20:14:26.877Z,8.95
2019-05-03T20:17:16.201Z,9.00
2019-05-03T20:20:04.787Z,8.96
2019-05-03T20:22:54.970Z,8.91
2019-05-03T20:25:41.263Z,8.96
2019-05-03T20:28:27.147Z,8.92
2019-05-03T20:31:18.221Z,8.89
2019-05-03T20:34:09.366Z,8.93
2019-05-03T20:40:26.826Z,8.92
2019-05-03T20:43:35.207Z,8.91
2019-05-03T20:46:31.958Z,8.83
2019-05-03T20:49:18.451Z,8.77
2019-05-03T20:52:05.642Z,8.75
2019-05-03T20:54:55.087Z,8.61
2019-05-03T20:57:41.716Z,8.61
2019-05-03T21:00:27.971Z,8.44
2019-05-03T21:03:15.280Z,8.34
2019-05-03T21:06:02.466Z,8.33
2019-05-03T21:08:56.706Z,8.36
2019-05-03T21:11:48.501Z,8.36
2019-05-03T21:14:35.166Z,8.38
2019-05-03T21:17:34.565Z,8.38
2019-05-03T21:20:39.422Z,8.27
2019-05-03T21:23:26.627Z,8.20
2019-05-03T21:26:16.677Z,8.25
2019-05-03T21:29:04.721Z,8.23
2019-05-03T21:31:55.128Z,8.18
2019-05-03T21:34:40.972Z,8.14
2019-05-03T21:37:27.417Z,8.08
2019-05-03T21:40:15.488Z,8.03
2019-05-03T21:43:01.792Z,7.99
2019-05-03T21:45:54.398Z,7.82
2019-05-03T21:48:50.466Z,7.74
2019-05-03T21:51:36.788Z,7.82
2019-05-03T21:54:28.356Z,7.71
2019-05-03T21:57:16.628Z,7.60
2019-05-03T22:00:05.498Z,7.50
2019-05-03T22:02:51.905Z,7.54
2019-05-03T22:05:51.789Z,7.47
2019-05-03T22:08:26.356Z,7.42
2019-05-03T22:11:12.296Z,7.45
2019-05-03T22:14:01.690Z,7.26
2019-05-03T22:17:07.326Z,7.36
2019-05-03T22:20:00.251Z,7.33
2019-05-03T22:22:55.419Z,7.24
2019-05-03T22:25:42.420Z,7.18
2019-05-03T22:28:28.836Z,7.11
2019-05-03T22:31:15.359Z,7.09
2019-05-03T22:34:01.410Z,7.13
2019-05-03T22:36:47.563Z,7.18
2019-05-03T22:39:35.776Z,7.22
2019-05-03T22:42:25.343Z,7.22
2019-05-03T22:45:13.311Z,7.17
2019-05-03T22:47:59.831Z,7.16
2019-05-03T22:50:46.030Z,7.11
2019-05-03T22:57:46.271Z,7.28
2019-05-03T23:13:20.970Z,7.13
2019-05-03T23:25:26.876Z,6.85
2019-05-03T23:28:24.941Z,6.59
2019-05-03T23:31:14.747Z,6.51
2019-05-03T23:34:08.074Z,6.55
2019-05-03T23:36:58.506Z,6.48
2019-05-03T23:39:50.963Z,6.34
2019-05-03T23:42:46.936Z,6.27
2019-05-03T23:45:34.773Z,6.35
2019-05-03T23:48:25.610Z,6.32
2019-05-03T23:51:30.896Z,6.26
2019-05-03T23:54:26.735Z,6.33
2019-05-03T23:57:14.436Z,6.30
